sensor_id;sensor_type;location;lat;lon;timestamp;temperature;humidity
33368;DHT22;19724;51.114;13.906;2022-11-20T00:00:52;-5.20;99.90
33368;DHT22;19724;51.114;13.906;2022-11-20T00:03:18;-5.30;99.90
33368;DHT22;19724;51.114;13.906;2022-11-20T00:05:44;-5.30;99.90
33368;DHT22;19724;51.114;13.906;2022-11-20T00:08:10;-5.30;99.90
33368;DHT22;19724;51.114;13.906;2022-11-20T00:10:37;-5.30;99.90
33368;DHT22;19724;51.114;13.906;2022-11-20T00:13:03;-5.30;99.90
33368;DHT22;19724;51.114;13.906;2022-11-20T00:15:29;-5.40;99.90
33368;DHT22;19724;51.114;13.906;2022-11-20T00:17:54;-5.40;99.90
33368;DHT22;19724;51.114;13.906;2022-11-20T00:20:20;-5.40;99.90
33368;DHT22;19724;51.114;13.906;2022-11-20T00:22:46;-5.40;99.90
33368;DHT22;19724;51.114;13.906;2022-11-20T00:25:11;-5.50;99.90
33368;DHT22;19724;51.114;13.906;2022-11-20T00:27:37;-5.50;99.90
33368;DHT22;19724;51.114;13.906;2022-11-20T00:30:04;-5.50;99.90
33368;DHT22;19724;51.114;13.906;2022-11-20T00:32:29;-5.50;99.90
33368;DHT22;19724;51.114;13.906;2022-11-20T00:34:55;-5.50;99.90
33368;DHT22;19724;51.114;13.906;2022-11-20T00:37:21;-5.50;99.90
33368;DHT22;19724;51.114;13.906;2022-11-20T00:39:46;-5.50;99.90
33368;DHT22;19724;51.114;13.906;2022-11-20T00:42:12;-5.50;99.90
33368;DHT22;19724;51.114;13.906;2022-11-20T00:44:37;-5.50;99.90
33368;DHT22;19724;51.114;13.906;2022-11-20T00:47:03;-5.60;99.90
33368;DHT22;19724;51.114;13.906;2022-11-20T00:49:29;-5.60;99.90
33368;DHT22;19724;51.114;13.906;2022-11-20T00:51:54;-5.60;99.90
33368;DHT22;19724;51.114;13.906;2022-11-20T00:54:20;-5.60;99.90
33368;DHT22;19724;51.114;13.906;2022-11-20T00:56:45;-5.60;99.90
33368;DHT22;19724;51.114;13.906;2022-11-20T00:59:11;-5.60;99.90
33368;DHT22;19724;51.114;13.906;2022-11-20T01:01:37;-5.60;99.90
33368;DHT22;19724;51.114;13.906;2022-11-20T01:04:02;-5.60;99.90
33368;DHT22;19724;51.114;13.906;2022-11-20T01:06:33;-5.60;99.90
33368;DHT22;19724;51.114;13.906;2022-11-20T01:09:07;-5.60;99.90
33368;DHT22;19724;51.114;13.906;2022-11-20T01:11:35;-5.60;99.90
33368;DHT22;19724;51.114;13.906;2022-11-20T01:14:03;-5.60;99.90
33368;DHT22;19724;51.114;13.906;2022-11-20T01:16:33;-5.60;99.90
33368;DHT22;19724;51.114;13.906;2022-11-20T01:19:01;-5.60;99.90
33368;DHT22;19724;51.114;13.906;2022-11-20T01:21:29;-5.60;99.90
33368;DHT22;19724;51.114;13.906;2022-11-20T01:23:55;-5.70;99.90
33368;DHT22;19724;51.114;13.906;2022-11-20T01:26:27;-5.70;99.90
33368;DHT22;19724;51.114;13.906;2022-11-20T01:28:54;-5.70;99.90
33368;DHT22;19724;51.114;13.906;2022-11-20T01:31:23;-5.70;99.90
33368;DHT22;19724;51.114;13.906;2022-11-20T01:33:51;-5.70;99.90
33368;DHT22;19724;51.114;13.906;2022-11-20T01:36:18;-5.70;99.90
33368;DHT22;19724;51.114;13.906;2022-11-20T01:38:44;-5.70;99.90
33368;DHT22;19724;51.114;13.906;2022-11-20T01:41:11;-5.80;99.90
33368;DHT22;19724;51.114;13.906;2022-11-20T01:43:58;-5.80;99.90
33368;DHT22;19724;51.114;13.906;2022-11-20T01:46:23;-5.80;99.90
33368;DHT22;19724;51.114;13.906;2022-11-20T01:49:01;-5.80;99.90
33368;DHT22;19724;51.114;13.906;2022-11-20T01:51:47;-5.80;99.90
33368;DHT22;19724;51.114;13.906;2022-11-20T01:54:23;-5.90;99.90
33368;DHT22;19724;51.114;13.906;2022-11-20T01:56:51;-5.90;99.90
33368;DHT22;19724;51.114;13.906;2022-11-20T01:59:19;-5.90;99.90
33368;DHT22;19724;51.114;13.906;2022-11-20T02:01:46;-5.90;99.90
33368;DHT22;19724;51.114;13.906;2022-11-20T02:04:12;-5.90;99.90
33368;DHT22;19724;51.114;13.906;2022-11-20T02:06:48;-5.90;99.90
33368;DHT22;19724;51.114;13.906;2022-11-20T02:09:15;-5.90;99.90
33368;DHT22;19724;51.114;13.906;2022-11-20T02:11:41;-5.90;99.90
33368;DHT22;19724;51.114;13.906;2022-11-20T02:14:07;-5.90;99.90
33368;DHT22;19724;51.114;13.906;2022-11-20T02:16:36;-5.90;99.90
33368;DHT22;19724;51.114;13.906;2022-11-20T02:19:07;-5.90;99.90
33368;DHT22;19724;51.114;13.906;2022-11-20T02:24:15;-5.90;99.90
33368;DHT22;19724;51.114;13.906;2022-11-20T02:26:44;-6.00;99.90
33368;DHT22;19724;51.114;13.906;2022-11-20T02:29:11;-6.00;99.90
33368;DHT22;19724;51.114;13.906;2022-11-20T02:31:40;-6.00;99.90
33368;DHT22;19724;51.114;13.906;2022-11-20T02:34:06;-6.10;99.90
33368;DHT22;19724;51.114;13.906;2022-11-20T02:36:33;-6.10;99.90
33368;DHT22;19724;51.114;13.906;2022-11-20T02:39:01;-6.00;99.90
33368;DHT22;19724;51.114;13.906;2022-11-20T02:41:31;-6.00;99.90
33368;DHT22;19724;51.114;13.906;2022-11-20T02:43:57;-6.10;99.90
33368;DHT22;19724;51.114;13.906;2022-11-20T02:46:23;-6.10;99.90
33368;DHT22;19724;51.114;13.906;2022-11-20T02:48:48;-6.10;99.90
33368;DHT22;19724;51.114;13.906;2022-11-20T02:51:14;-6.10;99.90
33368;DHT22;19724;51.114;13.906;2022-11-20T02:53:39;-6.10;99.90
33368;DHT22;19724;51.114;13.906;2022-11-20T02:56:05;-6.10;99.90
33368;DHT22;19724;51.114;13.906;2022-11-20T02:58:31;-6.10;99.90
33368;DHT22;19724;51.114;13.906;2022-11-20T03:00:56;-6.10;99.90
33368;DHT22;19724;51.114;13.906;2022-11-20T03:03:22;-6.10;99.90
33368;DHT22;19724;51.114;13.906;2022-11-20T03:05:48;-6.10;99.90
33368;DHT22;19724;51.114;13.906;2022-11-20T03:08:13;-6.20;99.90
33368;DHT22;19724;51.114;13.906;2022-11-20T03:10:39;-6.20;99.90
33368;DHT22;19724;51.114;13.906;2022-11-20T03:13:04;-6.20;99.90
33368;DHT22;19724;51.114;13.906;2022-11-20T03:15:30;-6.20;99.90
33368;DHT22;19724;51.114;13.906;2022-11-20T03:17:56;-6.20;99.90
33368;DHT22;19724;51.114;13.906;2022-11-20T03:20:22;-6.20;99.90
33368;DHT22;19724;51.114;13.906;2022-11-20T03:22:48;-6.20;99.90
33368;DHT22;19724;51.114;13.906;2022-11-20T03:25:13;-6.20;99.90
33368;DHT22;19724;51.114;13.906;2022-11-20T03:27:39;-6.30;99.90
33368;DHT22;19724;51.114;13.906;2022-11-20T03:30:05;-6.30;99.90
33368;DHT22;19724;51.114;13.906;2022-11-20T03:32:31;-6.30;99.90
33368;DHT22;19724;51.114;13.906;2022-11-20T03:34:56;-6.30;99.90
33368;DHT22;19724;51.114;13.906;2022-11-20T03:37:22;-6.30;99.90
33368;DHT22;19724;51.114;13.906;2022-11-20T03:39:47;-6.30;99.90
33368;DHT22;19724;51.114;13.906;2022-11-20T03:42:13;-6.30;99.90
33368;DHT22;19724;51.114;13.906;2022-11-20T03:44:57;-6.20;99.90
33368;DHT22;19724;51.114;13.906;2022-11-20T03:47:23;-6.20;99.90
33368;DHT22;19724;51.114;13.906;2022-11-20T03:49:48;-6.20;99.90
33368;DHT22;19724;51.114;13.906;2022-11-20T03:52:14;-6.20;99.90
33368;DHT22;19724;51.114;13.906;2022-11-20T03:54:39;-6.30;99.90
33368;DHT22;19724;51.114;13.906;2022-11-20T03:57:05;-6.30;99.90
33368;DHT22;19724;51.114;13.906;2022-11-20T03:59:31;-6.30;99.90
33368;DHT22;19724;51.114;13.906;2022-11-20T04:01:56;-6.30;99.90
33368;DHT22;19724;51.114;13.906;2022-11-20T04:04:22;-6.30;99.90
33368;DHT22;19724;51.114;13.906;2022-11-20T04:06:47;-6.20;99.90
33368;DHT22;19724;51.114;13.906;2022-11-20T04:09:13;-6.30;99.90
33368;DHT22;19724;51.114;13.906;2022-11-20T04:11:40;-6.30;99.90
33368;DHT22;19724;51.114;13.906;2022-11-20T04:14:11;-6.30;99.90
33368;DHT22;19724;51.114;13.906;2022-11-20T04:16:37;-6.30;99.90
33368;DHT22;19724;51.114;13.906;2022-11-20T04:19:06;-6.30;99.90
33368;DHT22;19724;51.114;13.906;2022-11-20T04:21:32;-6.30;99.90
33368;DHT22;19724;51.114;13.906;2022-11-20T04:23:58;-6.30;99.90
33368;DHT22;19724;51.114;13.906;2022-11-20T04:26:26;-6.30;99.90
33368;DHT22;19724;51.114;13.906;2022-11-20T04:28:52;-6.30;99.90
33368;DHT22;19724;51.114;13.906;2022-11-20T04:31:23;-6.30;99.90
33368;DHT22;19724;51.114;13.906;2022-11-20T04:33:49;-6.30;99.90
33368;DHT22;19724;51.114;13.906;2022-11-20T04:36:20;-6.30;99.90
33368;DHT22;19724;51.114;13.906;2022-11-20T04:38:46;-6.30;99.90
33368;DHT22;19724;51.114;13.906;2022-11-20T04:41:17;-6.30;99.90
33368;DHT22;19724;51.114;13.906;2022-11-20T04:43:46;-6.30;99.90
33368;DHT22;19724;51.114;13.906;2022-11-20T04:46:13;-6.30;99.90
33368;DHT22;19724;51.114;13.906;2022-11-20T04:48:39;-6.30;99.90
33368;DHT22;19724;51.114;13.906;2022-11-20T04:51:04;-6.30;99.90
33368;DHT22;19724;51.114;13.906;2022-11-20T04:53:31;-6.40;99.90
33368;DHT22;19724;51.114;13.906;2022-11-20T04:56:15;-6.40;99.90
33368;DHT22;19724;51.114;13.906;2022-11-20T04:58:41;-6.40;99.90
33368;DHT22;19724;51.114;13.906;2022-11-20T05:01:10;-6.40;99.90
33368;DHT22;19724;51.114;13.906;2022-11-20T05:03:37;-6.40;99.90
33368;DHT22;19724;51.114;13.906;2022-11-20T05:06:04;-6.40;99.90
33368;DHT22;19724;51.114;13.906;2022-11-20T05:08:31;-6.40;99.90
33368;DHT22;19724;51.114;13.906;2022-11-20T05:11:23;-6.50;99.90
33368;DHT22;19724;51.114;13.906;2022-11-20T05:13:50;-6.50;99.90
33368;DHT22;19724;51.114;13.906;2022-11-20T05:16:21;-6.60;99.90
33368;DHT22;19724;51.114;13.906;2022-11-20T05:18:47;-6.60;99.90
33368;DHT22;19724;51.114;13.906;2022-11-20T05:21:13;-6.70;99.90
33368;DHT22;19724;51.114;13.906;2022-11-20T05:23:39;-6.60;99.90
33368;DHT22;19724;51.114;13.906;2022-11-20T05:26:07;-6.70;99.90
33368;DHT22;19724;51.114;13.906;2022-11-20T05:28:34;-6.70;99.90
33368;DHT22;19724;51.114;13.906;2022-11-20T05:31:07;-6.70;99.90
33368;DHT22;19724;51.114;13.906;2022-11-20T05:33:34;-6.70;99.90
33368;DHT22;19724;51.114;13.906;2022-11-20T05:36:01;-6.60;99.90
33368;DHT22;19724;51.114;13.906;2022-11-20T05:38:26;-6.60;99.90
33368;DHT22;19724;51.114;13.906;2022-11-20T05:40:52;-6.60;99.90
33368;DHT22;19724;51.114;13.906;2022-11-20T05:43:17;-6.60;99.90
33368;DHT22;19724;51.114;13.906;2022-11-20T05:45:52;-6.60;99.90
33368;DHT22;19724;51.114;13.906;2022-11-20T05:48:17;-6.70;99.90
33368;DHT22;19724;51.114;13.906;2022-11-20T05:50:43;-6.70;99.90
33368;DHT22;19724;51.114;13.906;2022-11-20T05:53:08;-6.70;99.90
33368;DHT22;19724;51.114;13.906;2022-11-20T05:55:34;-6.70;99.90
33368;DHT22;19724;51.114;13.906;2022-11-20T05:57:59;-6.80;99.90
33368;DHT22;19724;51.114;13.906;2022-11-20T06:00:25;-6.80;99.90
33368;DHT22;19724;51.114;13.906;2022-11-20T06:02:50;-6.80;99.90
33368;DHT22;19724;51.114;13.906;2022-11-20T06:05:16;-6.80;99.90
33368;DHT22;19724;51.114;13.906;2022-11-20T06:07:42;-6.80;99.90
33368;DHT22;19724;51.114;13.906;2022-11-20T06:10:07;-6.80;99.90
33368;DHT22;19724;51.114;13.906;2022-11-20T06:12:33;-6.80;99.90
33368;DHT22;19724;51.114;13.906;2022-11-20T06:14:59;-6.80;99.90
33368;DHT22;19724;51.114;13.906;2022-11-20T06:17:25;-6.80;99.90
33368;DHT22;19724;51.114;13.906;2022-11-20T06:19:50;-6.80;99.90
33368;DHT22;19724;51.114;13.906;2022-11-20T06:22:16;-6.80;99.90
33368;DHT22;19724;51.114;13.906;2022-11-20T06:24:41;-6.70;99.90
33368;DHT22;19724;51.114;13.906;2022-11-20T06:27:07;-6.80;99.90
33368;DHT22;19724;51.114;13.906;2022-11-20T06:29:33;-6.70;99.90
33368;DHT22;19724;51.114;13.906;2022-11-20T06:31:58;-6.70;99.90
33368;DHT22;19724;51.114;13.906;2022-11-20T06:34:24;-6.70;99.90
33368;DHT22;19724;51.114;13.906;2022-11-20T06:36:49;-6.70;99.90
33368;DHT22;19724;51.114;13.906;2022-11-20T06:39:15;-6.70;99.90
33368;DHT22;19724;51.114;13.906;2022-11-20T06:41:40;-6.70;99.90
33368;DHT22;19724;51.114;13.906;2022-11-20T06:44:06;-6.70;99.90
33368;DHT22;19724;51.114;13.906;2022-11-20T06:46:31;-6.80;99.90
33368;DHT22;19724;51.114;13.906;2022-11-20T06:48:57;-6.70;99.90
33368;DHT22;19724;51.114;13.906;2022-11-20T06:51:23;-6.80;99.90
33368;DHT22;19724;51.114;13.906;2022-11-20T06:53:49;-6.70;99.90
33368;DHT22;19724;51.114;13.906;2022-11-20T06:56:14;-6.80;99.90
33368;DHT22;19724;51.114;13.906;2022-11-20T06:58:40;-6.70;99.90
33368;DHT22;19724;51.114;13.906;2022-11-20T07:01:08;-6.70;99.90
33368;DHT22;19724;51.114;13.906;2022-11-20T07:03:34;-6.60;99.90
33368;DHT22;19724;51.114;13.906;2022-11-20T07:06:01;-6.60;99.90
33368;DHT22;19724;51.114;13.906;2022-11-20T07:08:27;-6.50;99.90
33368;DHT22;19724;51.114;13.906;2022-11-20T07:10:57;-6.50;99.90
33368;DHT22;19724;51.114;13.906;2022-11-20T07:13:23;-6.40;99.90
33368;DHT22;19724;51.114;13.906;2022-11-20T07:15:48;-6.30;99.90
33368;DHT22;19724;51.114;13.906;2022-11-20T07:18:14;-6.30;99.90
33368;DHT22;19724;51.114;13.906;2022-11-20T07:20:39;-6.20;99.90
33368;DHT22;19724;51.114;13.906;2022-11-20T07:23:05;-6.20;99.90
33368;DHT22;19724;51.114;13.906;2022-11-20T07:25:30;-6.10;99.90
33368;DHT22;19724;51.114;13.906;2022-11-20T07:27:57;-6.00;99.90
33368;DHT22;19724;51.114;13.906;2022-11-20T07:30:23;-5.90;99.90
33368;DHT22;19724;51.114;13.906;2022-11-20T07:32:54;-5.90;99.90
33368;DHT22;19724;51.114;13.906;2022-11-20T07:35:21;-5.80;99.90
33368;DHT22;19724;51.114;13.906;2022-11-20T07:37:46;-5.70;99.90
33368;DHT22;19724;51.114;13.906;2022-11-20T07:40:16;-5.60;99.90
33368;DHT22;19724;51.114;13.906;2022-11-20T07:42:53;-5.50;99.90
33368;DHT22;19724;51.114;13.906;2022-11-20T07:45:20;-5.40;99.90
33368;DHT22;19724;51.114;13.906;2022-11-20T07:47:46;-5.20;99.90
33368;DHT22;19724;51.114;13.906;2022-11-20T07:50:12;-5.00;99.90
33368;DHT22;19724;51.114;13.906;2022-11-20T07:52:39;-4.90;99.90
33368;DHT22;19724;51.114;13.906;2022-11-20T07:55:05;-4.80;99.90
33368;DHT22;19724;51.114;13.906;2022-11-20T07:57:30;-4.60;99.90
33368;DHT22;19724;51.114;13.906;2022-11-20T07:59:56;-4.50;99.90
33368;DHT22;19724;51.114;13.906;2022-11-20T08:02:22;-4.30;99.90
33368;DHT22;19724;51.114;13.906;2022-11-20T08:04:47;-4.20;99.90
33368;DHT22;19724;51.114;13.906;2022-11-20T08:07:13;-4.10;99.90
33368;DHT22;19724;51.114;13.906;2022-11-20T08:09:38;-3.90;99.90
33368;DHT22;19724;51.114;13.906;2022-11-20T08:12:04;-3.80;99.90
33368;DHT22;19724;51.114;13.906;2022-11-20T08:14:48;-3.60;99.90
33368;DHT22;19724;51.114;13.906;2022-11-20T08:17:13;-3.50;99.90
33368;DHT22;19724;51.114;13.906;2022-11-20T08:19:39;-3.30;99.90
33368;DHT22;19724;51.114;13.906;2022-11-20T08:22:05;-3.20;99.90
33368;DHT22;19724;51.114;13.906;2022-11-20T08:24:30;-3.00;99.90
33368;DHT22;19724;51.114;13.906;2022-11-20T08:26:59;-2.70;99.90
33368;DHT22;19724;51.114;13.906;2022-11-20T08:29:28;-2.30;99.90
33368;DHT22;19724;51.114;13.906;2022-11-20T08:31:53;-2.00;99.90
33368;DHT22;19724;51.114;13.906;2022-11-20T08:34:19;-1.70;99.90
33368;DHT22;19724;51.114;13.906;2022-11-20T08:36:44;-1.40;99.90
33368;DHT22;19724;51.114;13.906;2022-11-20T08:39:13;-1.10;99.90
33368;DHT22;19724;51.114;13.906;2022-11-20T08:41:39;-0.80;99.90
33368;DHT22;19724;51.114;13.906;2022-11-20T08:44:06;-0.40;99.90
33368;DHT22;19724;51.114;13.906;2022-11-20T08:46:47;-0.10;99.90
33368;DHT22;19724;51.114;13.906;2022-11-20T08:49:26;0.10;99.90
33368;DHT22;19724;51.114;13.906;2022-11-20T08:51:54;0.40;99.90
33368;DHT22;19724;51.114;13.906;2022-11-20T08:54:22;0.50;99.90
33368;DHT22;19724;51.114;13.906;2022-11-20T08:56:48;0.70;99.90
33368;DHT22;19724;51.114;13.906;2022-11-20T08:59:13;0.80;99.90
33368;DHT22;19724;51.114;13.906;2022-11-20T09:01:39;0.80;99.90
33368;DHT22;19724;51.114;13.906;2022-11-20T09:04:05;1.00;99.90
33368;DHT22;19724;51.114;13.906;2022-11-20T09:06:30;1.20;99.90
33368;DHT22;19724;51.114;13.906;2022-11-20T09:08:56;1.40;99.90
33368;DHT22;19724;51.114;13.906;2022-11-20T09:11:22;1.60;99.90
33368;DHT22;19724;51.114;13.906;2022-11-20T09:13:48;1.70;99.90
33368;DHT22;19724;51.114;13.906;2022-11-20T09:16:13;2.10;99.90
33368;DHT22;19724;51.114;13.906;2022-11-20T09:18:39;2.60;99.90
33368;DHT22;19724;51.114;13.906;2022-11-20T09:21:08;3.00;99.90
33368;DHT22;19724;51.114;13.906;2022-11-20T09:23:36;3.40;99.90
33368;DHT22;19724;51.114;13.906;2022-11-20T09:26:12;3.60;99.90
33368;DHT22;19724;51.114;13.906;2022-11-20T09:28:38;3.90;99.90
33368;DHT22;19724;51.114;13.906;2022-11-20T09:31:08;4.20;99.90
33368;DHT22;19724;51.114;13.906;2022-11-20T09:33:35;4.70;99.90
33368;DHT22;19724;51.114;13.906;2022-11-20T09:36:01;4.90;99.90
33368;DHT22;19724;51.114;13.906;2022-11-20T09:38:26;5.30;99.90
33368;DHT22;19724;51.114;13.906;2022-11-20T09:41:04;5.80;99.90
33368;DHT22;19724;51.114;13.906;2022-11-20T09:43:51;6.10;99.90
33368;DHT22;19724;51.114;13.906;2022-11-20T09:46:45;6.20;99.90
33368;DHT22;19724;51.114;13.906;2022-11-20T09:52:20;6.30;99.90
33368;DHT22;19724;51.114;13.906;2022-11-20T09:54:48;6.60;99.90
33368;DHT22;19724;51.114;13.906;2022-11-20T09:57:21;6.60;99.90
33368;DHT22;19724;51.114;13.906;2022-11-20T09:59:51;6.60;99.90
33368;DHT22;19724;51.114;13.906;2022-11-20T10:02:45;6.90;99.90
33368;DHT22;19724;51.114;13.906;2022-11-20T10:05:25;7.00;99.90
33368;DHT22;19724;51.114;13.906;2022-11-20T10:08:27;7.20;99.90
33368;DHT22;19724;51.114;13.906;2022-11-20T10:11:11;7.50;99.90
33368;DHT22;19724;51.114;13.906;2022-11-20T10:24:40;8.10;99.90
33368;DHT22;19724;51.114;13.906;2022-11-20T10:29:45;8.30;99.90
33368;DHT22;19724;51.114;13.906;2022-11-20T10:32:18;8.50;99.90
33368;DHT22;19724;51.114;13.906;2022-11-20T10:34:58;8.70;99.90
33368;DHT22;19724;51.114;13.906;2022-11-20T10:37:26;8.80;99.90
33368;DHT22;19724;51.114;13.906;2022-11-20T10:40:06;9.10;99.90
33368;DHT22;19724;51.114;13.906;2022-11-20T10:42:49;9.30;99.90
33368;DHT22;19724;51.114;13.906;2022-11-20T10:48:00;9.60;99.90
33368;DHT22;19724;51.114;13.906;2022-11-20T10:50:35;9.50;99.90
33368;DHT22;19724;51.114;13.906;2022-11-20T10:53:05;9.40;99.90
33368;DHT22;19724;51.114;13.906;2022-11-20T10:55:57;9.30;99.90
33368;DHT22;19724;51.114;13.906;2022-11-20T11:01:13;8.80;99.90
33368;DHT22;19724;51.114;13.906;2022-11-20T11:03:40;8.50;99.90
33368;DHT22;19724;51.114;13.906;2022-11-20T11:06:28;8.30;99.90
33368;DHT22;19724;51.114;13.906;2022-11-20T11:09:00;7.80;99.90
33368;DHT22;19724;51.114;13.906;2022-11-20T11:11:30;7.40;99.90
33368;DHT22;19724;51.114;13.906;2022-11-20T11:14:11;7.10;99.90
33368;DHT22;19724;51.114;13.906;2022-11-20T11:16:50;6.90;99.90
33368;DHT22;19724;51.114;13.906;2022-11-20T11:19:16;6.70;99.90
33368;DHT22;19724;51.114;13.906;2022-11-20T11:22:10;6.50;99.90
33368;DHT22;19724;51.114;13.906;2022-11-20T11:24:38;6.30;99.90
33368;DHT22;19724;51.114;13.906;2022-11-20T11:27:11;6.30;99.90
33368;DHT22;19724;51.114;13.906;2022-11-20T11:29:38;6.30;99.90
33368;DHT22;19724;51.114;13.906;2022-11-20T11:32:06;6.10;99.90
33368;DHT22;19724;51.114;13.906;2022-11-20T11:34:32;6.10;99.90
33368;DHT22;19724;51.114;13.906;2022-11-20T11:36:58;6.00;99.90
33368;DHT22;19724;51.114;13.906;2022-11-20T11:39:26;5.70;99.90
33368;DHT22;19724;51.114;13.906;2022-11-20T11:41:52;5.70;99.90
33368;DHT22;19724;51.114;13.906;2022-11-20T11:44:21;5.50;99.90
33368;DHT22;19724;51.114;13.906;2022-11-20T11:47:22;5.50;99.90
33368;DHT22;19724;51.114;13.906;2022-11-20T11:49:48;5.60;99.90
33368;DHT22;19724;51.114;13.906;2022-11-20T11:52:17;5.60;99.90
33368;DHT22;19724;51.114;13.906;2022-11-20T11:54:53;5.60;99.90
33368;DHT22;19724;51.114;13.906;2022-11-20T12:00:23;5.30;99.90
33368;DHT22;19724;51.114;13.906;2022-11-20T12:06:26;4.90;99.90
33368;DHT22;19724;51.114;13.906;2022-11-20T12:08:57;4.90;99.90
33368;DHT22;19724;51.114;13.906;2022-11-20T12:16:49;4.80;99.90
33368;DHT22;19724;51.114;13.906;2022-11-20T12:19:15;5.20;99.90
33368;DHT22;19724;51.114;13.906;2022-11-20T12:25:07;5.60;99.90
33368;DHT22;19724;51.114;13.906;2022-11-20T12:30:09;5.60;99.90
33368;DHT22;19724;51.114;13.906;2022-11-20T12:38:48;5.20;99.90
33368;DHT22;19724;51.114;13.906;2022-11-20T12:41:08;4.90;99.90
33368;DHT22;19724;51.114;13.906;2022-11-20T12:43:45;5.00;99.90
33368;DHT22;19724;51.114;13.906;2022-11-20T12:46:43;4.90;99.90
33368;DHT22;19724;51.114;13.906;2022-11-20T12:49:22;4.70;99.90
33368;DHT22;19724;51.114;13.906;2022-11-20T12:52:07;4.60;99.90
33368;DHT22;19724;51.114;13.906;2022-11-20T12:57:21;4.40;99.90
33368;DHT22;19724;51.114;13.906;2022-11-20T13:02:58;4.30;99.90
33368;DHT22;19724;51.114;13.906;2022-11-20T13:05:31;4.00;99.90
33368;DHT22;19724;51.114;13.906;2022-11-20T13:07:58;3.70;99.90
33368;DHT22;19724;51.114;13.906;2022-11-20T13:10:37;3.50;99.90
33368;DHT22;19724;51.114;13.906;2022-11-20T13:16:06;3.20;99.90
33368;DHT22;19724;51.114;13.906;2022-11-20T13:18:39;3.10;99.90
33368;DHT22;19724;51.114;13.906;2022-11-20T13:21:38;3.10;99.90
33368;DHT22;19724;51.114;13.906;2022-11-20T13:24:19;3.00;99.90
33368;DHT22;19724;51.114;13.906;2022-11-20T13:26:46;2.80;99.90
33368;DHT22;19724;51.114;13.906;2022-11-20T13:29:19;2.60;99.90
33368;DHT22;19724;51.114;13.906;2022-11-20T13:31:47;2.60;99.90
33368;DHT22;19724;51.114;13.906;2022-11-20T13:34:34;2.50;99.90
33368;DHT22;19724;51.114;13.906;2022-11-20T13:37:01;2.50;99.90
33368;DHT22;19724;51.114;13.906;2022-11-20T13:39:34;2.50;99.90
33368;DHT22;19724;51.114;13.906;2022-11-20T13:42:23;2.50;99.90
33368;DHT22;19724;51.114;13.906;2022-11-20T13:44:55;2.50;99.90
33368;DHT22;19724;51.114;13.906;2022-11-20T13:47:27;2.50;99.90
33368;DHT22;19724;51.114;13.906;2022-11-20T13:49:57;2.50;99.90
33368;DHT22;19724;51.114;13.906;2022-11-20T13:55:24;2.50;99.90
33368;DHT22;19724;51.114;13.906;2022-11-20T14:01:16;2.50;99.90
33368;DHT22;19724;51.114;13.906;2022-11-20T14:03:48;2.40;99.90
33368;DHT22;19724;51.114;13.906;2022-11-20T14:06:29;2.40;99.90
33368;DHT22;19724;51.114;13.906;2022-11-20T14:08:59;2.40;99.90
33368;DHT22;19724;51.114;13.906;2022-11-20T14:11:29;2.30;99.90
33368;DHT22;19724;51.114;13.906;2022-11-20T14:14:13;2.20;99.90
33368;DHT22;19724;51.114;13.906;2022-11-20T14:16:39;2.10;99.90
33368;DHT22;19724;51.114;13.906;2022-11-20T14:21:48;1.90;99.90
33368;DHT22;19724;51.114;13.906;2022-11-20T14:24:18;1.90;99.90
33368;DHT22;19724;51.114;13.906;2022-11-20T14:26:45;1.80;99.90
33368;DHT22;19724;51.114;13.906;2022-11-20T14:29:19;1.70;99.90
33368;DHT22;19724;51.114;13.906;2022-11-20T14:31:47;1.70;99.90
33368;DHT22;19724;51.114;13.906;2022-11-20T14:34:20;1.70;99.90
33368;DHT22;19724;51.114;13.906;2022-11-20T14:36:47;1.70;99.90
33368;DHT22;19724;51.114;13.906;2022-11-20T14:39:31;1.60;99.90
33368;DHT22;19724;51.114;13.906;2022-11-20T14:41:57;1.40;99.90
33368;DHT22;19724;51.114;13.906;2022-11-20T14:44:27;1.30;99.90
33368;DHT22;19724;51.114;13.906;2022-11-20T14:46:55;1.20;99.90
33368;DHT22;19724;51.114;13.906;2022-11-20T14:49:21;1.10;99.90
33368;DHT22;19724;51.114;13.906;2022-11-20T14:52:11;1.10;99.90
33368;DHT22;19724;51.114;13.906;2022-11-20T14:54:47;1.10;99.90
33368;DHT22;19724;51.114;13.906;2022-11-20T14:57:38;1.00;99.90
33368;DHT22;19724;51.114;13.906;2022-11-20T15:05:46;0.90;99.90
33368;DHT22;19724;51.114;13.906;2022-11-20T15:08:36;0.80;99.90
33368;DHT22;19724;51.114;13.906;2022-11-20T15:11:19;0.70;99.90
33368;DHT22;19724;51.114;13.906;2022-11-20T15:14:14;0.70;99.90
33368;DHT22;19724;51.114;13.906;2022-11-20T15:16:53;0.60;99.90
33368;DHT22;19724;51.114;13.906;2022-11-20T15:26:04;0.50;99.90
33368;DHT22;19724;51.114;13.906;2022-11-20T15:28:41;0.50;99.90
33368;DHT22;19724;51.114;13.906;2022-11-20T15:31:22;0.40;99.90
33368;DHT22;19724;51.114;13.906;2022-11-20T15:33:56;0.40;99.90
33368;DHT22;19724;51.114;13.906;2022-11-20T15:37:09;0.40;99.90
33368;DHT22;19724;51.114;13.906;2022-11-20T15:39:54;0.30;99.90
33368;DHT22;19724;51.114;13.906;2022-11-20T15:42:23;0.30;99.90
33368;DHT22;19724;51.114;13.906;2022-11-20T15:44:51;0.30;99.90
33368;DHT22;19724;51.114;13.906;2022-11-20T15:47:38;0.20;99.90
33368;DHT22;19724;51.114;13.906;2022-11-20T15:50:13;0.20;99.90
33368;DHT22;19724;51.114;13.906;2022-11-20T15:52:42;0.20;99.90
33368;DHT22;19724;51.114;13.906;2022-11-20T15:55:10;0.10;99.90
33368;DHT22;19724;51.114;13.906;2022-11-20T15:57:36;0.10;99.90
33368;DHT22;19724;51.114;13.906;2022-11-20T16:00:01;0.00;99.90
33368;DHT22;19724;51.114;13.906;2022-11-20T16:02:27;0.00;99.90
33368;DHT22;19724;51.114;13.906;2022-11-20T16:04:53;-0.10;99.90
33368;DHT22;19724;51.114;13.906;2022-11-20T16:07:18;-0.10;99.90
33368;DHT22;19724;51.114;13.906;2022-11-20T16:09:44;-0.10;99.90
33368;DHT22;19724;51.114;13.906;2022-11-20T16:12:09;-0.20;99.90
33368;DHT22;19724;51.114;13.906;2022-11-20T16:14:55;-0.20;99.90
33368;DHT22;19724;51.114;13.906;2022-11-20T16:17:39;-0.30;99.90
33368;DHT22;19724;51.114;13.906;2022-11-20T16:20:11;-0.40;99.90
33368;DHT22;19724;51.114;13.906;2022-11-20T16:22:36;-0.40;99.90
33368;DHT22;19724;51.114;13.906;2022-11-20T16:25:03;-0.50;99.90
33368;DHT22;19724;51.114;13.906;2022-11-20T16:27:29;-0.50;99.90
33368;DHT22;19724;51.114;13.906;2022-11-20T16:29:55;-0.60;99.90
33368;DHT22;19724;51.114;13.906;2022-11-20T16:32:20;-0.60;99.90
33368;DHT22;19724;51.114;13.906;2022-11-20T16:34:46;-0.70;99.90
33368;DHT22;19724;51.114;13.906;2022-11-20T16:37:12;-0.80;99.90
33368;DHT22;19724;51.114;13.906;2022-11-20T16:39:37;-0.80;99.90
33368;DHT22;19724;51.114;13.906;2022-11-20T16:42:06;-0.90;99.90
33368;DHT22;19724;51.114;13.906;2022-11-20T16:44:31;-0.90;99.90
33368;DHT22;19724;51.114;13.906;2022-11-20T16:46:57;-1.00;99.90
33368;DHT22;19724;51.114;13.906;2022-11-20T16:49:22;-1.10;99.90
33368;DHT22;19724;51.114;13.906;2022-11-20T16:51:49;-1.10;99.90
33368;DHT22;19724;51.114;13.906;2022-11-20T16:54:14;-1.20;99.90
33368;DHT22;19724;51.114;13.906;2022-11-20T16:56:40;-1.30;99.90